createdAt,value
2017-12-26T00:00:00.065Z,85.50
2017-12-26T00:02:27.581Z,85.50
2017-12-26T00:04:56.222Z,85.70
2017-12-26T00:07:25.000Z,85.70
2017-12-26T00:09:53.494Z,85.70
2017-12-26T00:12:21.415Z,85.90
2017-12-26T00:14:48.955Z,86.10
2017-12-26T00:17:16.897Z,86.00
2017-12-26T00:19:44.460Z,85.60
2017-12-26T00:22:12.006Z,85.40
2017-12-26T00:24:39.573Z,85.20
2017-12-26T00:27:07.961Z,85.40
2017-12-26T00:29:35.890Z,85.70
2017-12-26T00:32:04.192Z,85.80
2017-12-26T00:34:31.701Z,85.70
2017-12-26T00:36:59.686Z,85.40
2017-12-26T00:39:27.991Z,85.40
2017-12-26T00:41:56.285Z,85.70
2017-12-26T00:44:24.180Z,85.60
2017-12-26T00:46:51.730Z,85.60
2017-12-26T00:49:19.227Z,85.60
2017-12-26T00:51:46.754Z,85.60
2017-12-26T00:54:14.656Z,85.40
2017-12-26T00:56:42.211Z,85.30
2017-12-26T00:59:10.109Z,85.10
2017-12-26T01:01:37.645Z,85.20
2017-12-26T01:04:06.113Z,85.60
2017-12-26T01:06:34.027Z,85.50
2017-12-26T01:09:02.674Z,85.70
2017-12-26T01:11:30.174Z,85.80
2017-12-26T01:13:58.484Z,85.70
2017-12-26T01:16:26.382Z,85.70
2017-12-26T01:18:53.915Z,85.40
2017-12-26T01:21:21.804Z,85.40
2017-12-26T01:23:49.337Z,85.30
2017-12-26T01:26:17.610Z,85.40
2017-12-26T01:28:45.139Z,85.30
2017-12-26T01:31:12.632Z,85.10
2017-12-26T01:33:40.158Z,85.20
2017-12-26T01:36:08.134Z,85.10
2017-12-26T01:38:35.684Z,84.80
2017-12-26T01:41:06.017Z,85.10
2017-12-26T01:43:33.531Z,85.20
2017-12-26T01:46:13.510Z,85.30
2017-12-26T01:48:41.038Z,85.30
2017-12-26T01:51:08.932Z,85.10
2017-12-26T01:53:36.856Z,85.10
2017-12-26T01:56:04.773Z,85.10
2017-12-26T01:58:32.299Z,84.90
2017-12-26T02:01:00.187Z,85.10
2017-12-26T02:03:27.710Z,85.10
2017-12-26T02:05:55.232Z,85.30
2017-12-26T02:08:22.751Z,85.10
2017-12-26T02:10:50.251Z,85.20
2017-12-26T02:13:17.767Z,85.20
2017-12-26T02:15:45.662Z,85.20
2017-12-26T02:18:13.583Z,85.20
2017-12-26T02:20:41.472Z,85.10
2017-12-26T02:23:09.035Z,84.80
2017-12-26T02:25:36.527Z,84.50
2017-12-26T02:28:04.436Z,84.40
2017-12-26T02:30:32.726Z,84.30
2017-12-26T02:33:00.630Z,84.40
2017-12-26T02:35:28.929Z,84.70
2017-12-26T02:37:57.002Z,84.50
2017-12-26T02:40:24.534Z,84.50
2017-12-26T02:42:52.446Z,84.70
2017-12-26T02:45:20.732Z,85.10
2017-12-26T02:47:48.252Z,85.20
2017-12-26T02:50:15.819Z,85.20
2017-12-26T02:52:44.836Z,85.50
2017-12-26T02:55:12.729Z,85.60
2017-12-26T02:57:41.395Z,85.60
2017-12-26T03:00:09.678Z,85.40
2017-12-26T03:02:37.597Z,85.90
2017-12-26T03:05:05.511Z,85.90
2017-12-26T03:07:33.823Z,85.90
2017-12-26T03:10:01.337Z,85.80
2017-12-26T03:12:29.272Z,85.70
2017-12-26T03:14:57.544Z,85.70
2017-12-26T03:17:25.684Z,86.20
2017-12-26T03:19:53.184Z,85.90
2017-12-26T03:22:21.092Z,85.60
2017-12-26T03:24:48.642Z,86.00
2017-12-26T03:27:16.149Z,85.90
2017-12-26T03:29:43.667Z,85.90
2017-12-26T03:32:11.176Z,86.10
2017-12-26T03:34:39.840Z,86.00
2017-12-26T03:37:08.115Z,86.10
2017-12-26T03:39:35.644Z,85.90
2017-12-26T03:42:03.158Z,85.90
2017-12-26T03:44:31.071Z,85.90
2017-12-26T03:46:58.588Z,85.90
2017-12-26T03:49:26.492Z,85.80
2017-12-26T03:51:54.422Z,86.00
2017-12-26T03:54:22.327Z,85.90
2017-12-26T03:56:49.854Z,85.90
2017-12-26T03:59:17.759Z,85.70
2017-12-26T04:01:45.287Z,85.60
2017-12-26T04:04:13.207Z,85.60
2017-12-26T04:06:41.466Z,85.70
2017-12-26T04:09:09.013Z,85.60
2017-12-26T04:11:36.514Z,85.70
2017-12-26T04:14:04.043Z,85.70
2017-12-26T04:16:31.943Z,85.60
2017-12-26T04:18:59.471Z,85.60
2017-12-26T04:21:27.362Z,85.70
2017-12-26T04:23:55.271Z,85.70
2017-12-26T04:26:22.767Z,85.60
2017-12-26T04:28:50.722Z,85.40
2017-12-26T04:31:18.718Z,85.40
2017-12-26T04:33:46.287Z,85.50
2017-12-26T04:36:13.791Z,85.20
2017-12-26T04:38:41.299Z,85.20
2017-12-26T04:41:09.215Z,85.10
2017-12-26T04:43:37.130Z,84.90
2017-12-26T04:46:05.489Z,85.10
2017-12-26T04:48:32.990Z,85.20
2017-12-26T04:51:00.604Z,85.40
2017-12-26T04:53:28.642Z,85.20
2017-12-26T04:55:56.556Z,85.20
2017-12-26T04:58:24.069Z,85.50
2017-12-26T05:00:51.995Z,85.60
2017-12-26T05:03:19.511Z,85.50
2017-12-26T05:05:47.815Z,85.60
2017-12-26T05:08:15.319Z,85.70
2017-12-26T05:10:43.236Z,85.80
2017-12-26T05:13:11.143Z,85.80
2017-12-26T05:15:38.671Z,85.60
2017-12-26T05:18:06.191Z,85.80
2017-12-26T05:20:34.107Z,86.10
2017-12-26T05:23:02.004Z,86.10
2017-12-26T05:25:29.557Z,86.00
2017-12-26T05:27:57.059Z,85.90
2017-12-26T05:30:24.776Z,85.80
2017-12-26T05:32:52.679Z,85.40
2017-12-26T05:35:20.604Z,85.80
2017-12-26T05:37:48.514Z,85.90
2017-12-26T05:40:16.232Z,85.90
2017-12-26T05:42:44.140Z,86.20
2017-12-26T05:45:11.670Z,85.90
2017-12-26T05:47:39.570Z,85.50
2017-12-26T05:50:07.493Z,85.60
2017-12-26T05:52:35.004Z,85.80
2017-12-26T05:55:02.926Z,85.60
2017-12-26T05:57:30.432Z,85.80
2017-12-26T05:59:57.947Z,85.80
2017-12-26T06:02:25.451Z,85.90
2017-12-26T06:04:52.967Z,85.90
2017-12-26T06:07:20.855Z,85.80
2017-12-26T06:09:48.424Z,85.80
2017-12-26T06:12:16.924Z,85.90
2017-12-26T06:14:44.819Z,85.50
2017-12-26T06:17:12.745Z,85.30
2017-12-26T06:19:40.655Z,85.40
2017-12-26T06:22:08.579Z,85.90
2017-12-26T06:24:36.487Z,86.30
2017-12-26T06:27:04.006Z,86.10
2017-12-26T06:29:31.519Z,86.60
2017-12-26T06:31:59.436Z,86.30
2017-12-26T06:34:26.935Z,86.10
2017-12-26T06:36:54.462Z,86.00
2017-12-26T06:39:22.731Z,86.00
2017-12-26T06:41:50.251Z,86.20
2017-12-26T06:44:17.762Z,86.00
2017-12-26T06:46:45.286Z,85.90
2017-12-26T06:49:13.194Z,86.20
2017-12-26T06:51:41.191Z,86.10
2017-12-26T06:54:09.080Z,85.80
2017-12-26T06:56:36.612Z,85.80
2017-12-26T06:59:04.133Z,85.90
2017-12-26T07:01:32.039Z,85.90
2017-12-26T07:03:59.555Z,86.10
2017-12-26T07:06:27.055Z,85.90
2017-12-26T07:08:55.358Z,86.10
2017-12-26T07:11:22.858Z,86.10
2017-12-26T07:13:50.783Z,85.90
2017-12-26T07:16:18.290Z,85.90
2017-12-26T07:18:46.195Z,86.20
2017-12-26T07:21:19.409Z,86.30
2017-12-26T07:23:48.041Z,86.20
2017-12-26T07:26:15.596Z,86.20
2017-12-26T07:28:43.175Z,86.10
2017-12-26T07:31:10.713Z,86.30
2017-12-26T07:33:38.227Z,86.00
2017-12-26T07:36:06.173Z,86.10
2017-12-26T07:38:34.280Z,86.10
2017-12-26T07:41:02.580Z,85.90
2017-12-26T07:43:30.082Z,86.10
2017-12-26T07:45:58.012Z,85.90
2017-12-26T07:48:26.642Z,85.90
2017-12-26T07:50:54.171Z,85.90
2017-12-26T07:53:21.684Z,85.80
2017-12-26T07:55:49.599Z,85.80
2017-12-26T07:58:17.871Z,85.80
2017-12-26T08:00:45.791Z,85.50
2017-12-26T08:03:13.693Z,85.40
2017-12-26T08:05:41.226Z,85.50
2017-12-26T08:08:08.723Z,85.30
2017-12-26T08:10:36.691Z,85.30
2017-12-26T08:13:04.590Z,85.60
2017-12-26T08:15:32.491Z,85.50
2017-12-26T08:18:00.771Z,85.40
2017-12-26T08:20:28.671Z,85.30
2017-12-26T08:22:56.194Z,85.10
2017-12-26T08:25:23.691Z,85.10
2017-12-26T08:27:51.312Z,84.70
2017-12-26T08:30:18.807Z,84.60
2017-12-26T08:32:46.323Z,84.90
2017-12-26T08:35:14.222Z,85.30
2017-12-26T08:37:41.750Z,85.20
2017-12-26T08:40:09.251Z,85.20
2017-12-26T08:42:37.156Z,85.20
2017-12-26T08:45:05.439Z,84.90
2017-12-26T08:47:33.363Z,84.80
2017-12-26T08:50:00.860Z,84.80
2017-12-26T08:52:28.848Z,84.80
2017-12-26T08:54:56.758Z,85.10
2017-12-26T08:57:24.295Z,84.90
2017-12-26T08:59:51.786Z,85.20
2017-12-26T09:02:19.708Z,85.10
2017-12-26T09:04:47.605Z,84.50
2017-12-26T09:07:15.139Z,83.50
2017-12-26T09:09:43.034Z,82.90
2017-12-26T09:12:10.943Z,82.30
2017-12-26T09:14:38.463Z,80.90
2017-12-26T09:17:05.985Z,79.80
2017-12-26T09:19:34.263Z,79.60
2017-12-26T09:22:01.787Z,79.60
2017-12-26T09:24:29.289Z,80.20
2017-12-26T09:26:56.816Z,79.50
2017-12-26T09:29:24.307Z,79.00
2017-12-26T09:31:52.211Z,78.50
2017-12-26T09:34:20.458Z,78.70
2017-12-26T09:36:47.982Z,77.50
2017-12-26T09:39:15.872Z,77.40
2017-12-26T09:41:43.411Z,77.20
2017-12-26T09:44:11.308Z,76.20
2017-12-26T09:46:38.838Z,76.00
2017-12-26T09:49:06.727Z,74.90
2017-12-26T09:51:34.660Z,73.30
2017-12-26T09:54:02.564Z,72.90
2017-12-26T09:56:30.096Z,73.30
2017-12-26T09:58:58.391Z,74.30
2017-12-26T10:01:26.339Z,75.50
2017-12-26T10:03:54.234Z,75.90
2017-12-26T10:06:21.775Z,76.30
2017-12-26T10:08:49.664Z,77.00
2017-12-26T10:11:17.223Z,77.00
2017-12-26T10:13:45.122Z,76.70
2017-12-26T10:16:12.652Z,75.60
2017-12-26T10:18:40.586Z,75.60
2017-12-26T10:21:08.079Z,74.00
2017-12-26T10:23:35.613Z,72.40
2017-12-26T10:26:03.512Z,70.00
2017-12-26T10:28:31.046Z,69.90
2017-12-26T10:30:58.553Z,69.60
2017-12-26T10:33:26.087Z,69.10
2017-12-26T10:35:53.996Z,67.70
2017-12-26T10:38:21.919Z,67.20
2017-12-26T10:40:50.572Z,65.70
2017-12-26T10:43:18.132Z,64.50
2017-12-26T10:45:46.036Z,62.40
2017-12-26T10:48:13.567Z,61.40
2017-12-26T10:50:41.100Z,60.60
2017-12-26T10:53:08.642Z,60.40
2017-12-26T10:55:36.163Z,61.10
2017-12-26T10:58:04.087Z,61.30
2017-12-26T11:00:31.595Z,60.80
2017-12-26T11:02:59.166Z,61.40
2017-12-26T11:05:26.680Z,60.00
2017-12-26T11:07:54.980Z,60.10
2017-12-26T11:10:22.531Z,59.50
2017-12-26T11:12:50.429Z,58.60
2017-12-26T11:15:17.965Z,57.50
2017-12-26T11:17:45.480Z,56.00
2017-12-26T11:20:13.011Z,55.50
2017-12-26T11:22:40.533Z,54.80
2017-12-26T11:25:09.263Z,54.70
2017-12-26T11:27:37.152Z,54.80
2017-12-26T11:30:05.088Z,55.20
2017-12-26T11:32:32.612Z,54.40
2017-12-26T11:35:00.144Z,53.60
2017-12-26T11:37:28.069Z,54.50
2017-12-26T11:39:56.349Z,55.60
2017-12-26T11:42:24.664Z,57.50
2017-12-26T11:44:52.185Z,59.10
2017-12-26T11:49:49.352Z,61.90
2017-12-26T11:52:16.891Z,63.40
2017-12-26T11:54:44.816Z,64.40
2017-12-26T11:57:12.343Z,65.50
2017-12-26T11:59:39.844Z,66.60
2017-12-26T12:02:07.392Z,67.60
2017-12-26T12:04:34.892Z,68.10
2017-12-26T12:07:02.440Z,68.50
2017-12-26T12:09:30.344Z,68.40
2017-12-26T12:11:58.640Z,68.60
2017-12-26T12:14:26.552Z,68.50
2017-12-26T12:16:54.641Z,68.80
2017-12-26T12:19:22.568Z,68.70
2017-12-26T12:21:50.493Z,68.50
2017-12-26T12:24:18.056Z,68.40
2017-12-26T12:26:45.976Z,68.60
2017-12-26T12:29:13.870Z,68.60
2017-12-26T12:31:41.405Z,68.80
2017-12-26T12:34:09.598Z,69.10
2017-12-26T12:36:37.536Z,69.10
2017-12-26T12:39:05.442Z,69.40
2017-12-26T12:41:33.359Z,69.50
2017-12-26T12:44:01.680Z,69.50
2017-12-26T12:46:29.208Z,69.90
2017-12-26T12:48:58.234Z,70.20
2017-12-26T12:51:26.511Z,70.30
2017-12-26T12:53:55.168Z,70.50
2017-12-26T12:56:22.718Z,70.50
2017-12-26T12:58:51.039Z,70.80
2017-12-26T13:01:18.965Z,70.90
2017-12-26T13:03:47.285Z,71.00
2017-12-26T13:06:15.183Z,71.30
2017-12-26T13:08:43.121Z,71.30
2017-12-26T13:11:11.042Z,71.50
2017-12-26T13:13:39.385Z,71.70
2017-12-26T13:16:06.900Z,72.00
2017-12-26T13:18:34.826Z,72.70
2017-12-26T13:21:02.733Z,72.90
2017-12-26T13:23:30.272Z,73.20
2017-12-26T13:25:58.185Z,73.40
2017-12-26T13:28:26.124Z,73.90
2017-12-26T13:30:54.046Z,74.20
2017-12-26T13:33:21.592Z,74.30
2017-12-26T13:35:49.109Z,74.60
2017-12-26T13:38:17.048Z,75.10
2017-12-26T13:43:13.451Z,75.50
2017-12-26T13:45:41.812Z,75.70
2017-12-26T13:48:09.331Z,75.90
2017-12-26T13:50:37.232Z,76.20
2017-12-26T13:53:04.751Z,76.10
2017-12-26T13:55:32.247Z,76.20
2017-12-26T13:57:59.766Z,76.60
2017-12-26T14:00:28.044Z,76.80
2017-12-26T14:02:56.699Z,76.60
2017-12-26T14:05:24.594Z,75.80
2017-12-26T14:07:52.120Z,75.60
2017-12-26T14:10:19.624Z,74.90
2017-12-26T14:12:47.559Z,74.40
2017-12-26T14:15:15.454Z,73.90
2017-12-26T14:17:43.830Z,73.80
2017-12-26T14:20:11.323Z,73.50
2017-12-26T14:22:38.852Z,73.50
2017-12-26T14:25:06.375Z,73.70
2017-12-26T14:27:34.299Z,74.00
2017-12-26T14:30:02.584Z,74.00
2017-12-26T14:32:30.522Z,74.20
2017-12-26T14:34:58.804Z,74.10
2017-12-26T14:37:27.083Z,74.10
2017-12-26T14:39:55.009Z,74.20
2017-12-26T14:42:23.121Z,74.30
2017-12-26T14:44:50.737Z,74.60
2017-12-26T14:47:18.275Z,74.70
2017-12-26T14:49:45.794Z,74.90
2017-12-26T14:52:13.334Z,75.10
2017-12-26T14:54:41.229Z,75.30
2017-12-26T14:57:09.154Z,75.40
2017-12-26T14:59:36.655Z,75.60
2017-12-26T15:02:04.923Z,75.80
2017-12-26T15:04:32.529Z,75.80
2017-12-26T15:07:00.767Z,76.00
2017-12-26T15:09:29.051Z,76.10
2017-12-26T15:11:56.942Z,76.30
2017-12-26T15:14:24.686Z,76.50
2017-12-26T15:16:52.584Z,76.70
2017-12-26T15:19:20.503Z,76.70
2017-12-26T15:21:48.000Z,76.70
2017-12-26T15:24:15.526Z,76.90
2017-12-26T15:26:43.435Z,77.00
2017-12-26T15:29:10.955Z,77.10
2017-12-26T15:31:38.451Z,77.10
2017-12-26T15:34:05.971Z,77.20
2017-12-26T15:36:33.873Z,77.50
2017-12-26T15:39:01.808Z,77.50
2017-12-26T15:41:29.313Z,77.60
2017-12-26T15:43:57.408Z,77.80
2017-12-26T15:46:24.962Z,78.00
2017-12-26T15:48:53.622Z,77.80
2017-12-26T15:51:21.518Z,77.80
2017-12-26T15:53:49.049Z,78.00
2017-12-26T15:56:16.955Z,78.10
2017-12-26T15:58:44.495Z,78.20
2017-12-26T16:01:12.405Z,78.30
2017-12-26T16:06:09.204Z,78.40
2017-12-26T16:08:36.866Z,78.40
2017-12-26T16:13:33.257Z,78.50
2017-12-26T16:16:01.178Z,78.50
2017-12-26T16:18:28.692Z,78.50
2017-12-26T16:20:56.612Z,78.50
2017-12-26T16:23:24.116Z,78.50
2017-12-26T16:25:52.415Z,78.60
2017-12-26T16:28:20.324Z,78.70
2017-12-26T16:30:50.326Z,78.60
2017-12-26T16:33:18.262Z,78.70
2017-12-26T16:35:46.186Z,78.90
2017-12-26T16:38:13.692Z,78.80
2017-12-26T16:40:41.215Z,79.00
2017-12-26T16:43:08.776Z,79.00
2017-12-26T16:45:37.440Z,79.10
2017-12-26T16:48:04.961Z,78.90
2017-12-26T16:50:32.880Z,78.90
2017-12-26T16:53:00.414Z,79.10
2017-12-26T16:55:27.911Z,78.90
2017-12-26T16:57:56.352Z,79.00
2017-12-26T17:00:23.856Z,79.20
2017-12-26T17:02:51.397Z,79.20
2017-12-26T17:05:18.936Z,79.50
2017-12-26T17:07:46.496Z,79.40
2017-12-26T17:10:14.020Z,79.50
2017-12-26T17:12:41.523Z,79.60
2017-12-26T17:15:09.480Z,79.60
2017-12-26T17:17:37.041Z,79.90
2017-12-26T17:22:33.524Z,79.70
2017-12-26T17:25:01.052Z,80.00
2017-12-26T17:27:28.614Z,79.90
2017-12-26T17:29:56.137Z,79.90
2017-12-26T17:32:24.043Z,80.20
2017-12-26T17:34:51.602Z,80.40
2017-12-26T17:37:19.119Z,80.80
2017-12-26T17:39:46.655Z,80.90
2017-12-26T17:42:14.551Z,81.10
2017-12-26T17:44:42.125Z,81.20
2017-12-26T17:47:09.635Z,81.40
2017-12-26T17:49:37.567Z,81.50
2017-12-26T17:52:06.262Z,81.60
2017-12-26T17:54:34.220Z,81.40
2017-12-26T17:57:02.177Z,81.40
2017-12-26T17:59:30.070Z,81.40
2017-12-26T18:04:26.447Z,80.90
2017-12-26T18:06:54.009Z,80.90
2017-12-26T18:09:21.532Z,81.20
2017-12-26T18:11:49.054Z,81.30
2017-12-26T18:14:17.067Z,81.30
2017-12-26T18:16:44.630Z,81.50
2017-12-26T18:19:12.569Z,81.80
2017-12-26T18:21:40.093Z,81.70
2017-12-26T18:24:08.021Z,82.30
2017-12-26T18:26:35.975Z,82.10
2017-12-26T18:29:03.917Z,81.80
2017-12-26T18:31:31.862Z,81.90
2017-12-26T18:34:00.487Z,81.90
2017-12-26T18:36:28.021Z,81.90
2017-12-26T18:38:56.731Z,81.70
2017-12-26T18:41:24.256Z,81.60
2017-12-26T18:43:52.194Z,81.60
2017-12-26T18:46:20.199Z,81.60
2017-12-26T18:48:48.164Z,81.50
2017-12-26T18:51:15.744Z,81.60
2017-12-26T18:53:43.654Z,81.60
2017-12-26T18:56:11.616Z,81.50
2017-12-26T18:58:39.159Z,81.40
2017-12-26T19:01:06.725Z,81.40
2017-12-26T19:03:34.239Z,81.30
2017-12-26T19:06:01.766Z,81.30
2017-12-26T19:08:29.714Z,81.50
2017-12-26T19:10:57.671Z,81.90
2017-12-26T19:13:26.250Z,81.80
2017-12-26T19:15:53.816Z,81.90
2017-12-26T19:18:21.805Z,81.70
2017-12-26T19:20:49.387Z,81.20
2017-12-26T19:23:16.936Z,81.50
2017-12-26T19:25:44.907Z,81.70
2017-12-26T19:28:12.846Z,81.90
2017-12-26T19:30:41.562Z,81.40
2017-12-26T19:33:09.457Z,81.60
2017-12-26T19:35:37.421Z,82.30
2017-12-26T19:38:05.357Z,82.30
2017-12-26T19:40:33.714Z,82.40
2017-12-26T19:43:01.210Z,82.40
2017-12-26T19:45:28.774Z,82.60
2017-12-26T19:47:56.283Z,82.50
2017-12-26T19:50:24.258Z,82.00
2017-12-26T19:52:51.814Z,81.80
2017-12-26T19:55:19.398Z,81.60
2017-12-26T19:57:47.353Z,81.80
2017-12-26T20:00:15.284Z,81.60
2017-12-26T20:02:43.634Z,81.50
2017-12-26T20:05:11.333Z,81.40
2017-12-26T20:07:38.917Z,81.60
2017-12-26T20:10:06.873Z,82.00
2017-12-26T20:16:05.649Z,82.30
2017-12-26T20:18:33.316Z,82.30
2017-12-26T20:21:00.866Z,82.40
2017-12-26T20:23:29.247Z,82.10
2017-12-26T20:25:56.738Z,82.30
2017-12-26T20:28:30.400Z,82.30
2017-12-26T20:30:57.928Z,82.00
2017-12-26T20:33:25.928Z,81.80
2017-12-26T20:35:53.477Z,81.70
2017-12-26T20:38:21.046Z,81.60
2017-12-26T20:40:48.600Z,81.40
2017-12-26T20:43:16.165Z,81.70
2017-12-26T20:45:43.719Z,81.80
2017-12-26T20:48:11.875Z,82.00
2017-12-26T20:50:39.431Z,82.00
2017-12-26T20:53:07.415Z,82.00
2017-12-26T20:55:35.331Z,81.70
2017-12-26T20:58:03.262Z,81.70
2017-12-26T21:00:32.318Z,82.40
2017-12-26T21:02:59.869Z,82.60
2017-12-26T21:05:27.453Z,82.60
2017-12-26T21:07:55.425Z,82.50
2017-12-26T21:10:23.406Z,82.40
2017-12-26T21:12:51.349Z,82.40
2017-12-26T21:15:19.340Z,82.30
2017-12-26T21:17:47.316Z,82.10
2017-12-26T21:20:15.662Z,82.00
2017-12-26T21:22:43.804Z,81.70
2017-12-26T21:25:11.463Z,81.90
2017-12-26T21:27:39.785Z,81.70
2017-12-26T21:30:07.367Z,81.60
2017-12-26T21:32:34.918Z,81.90
2017-12-26T21:35:03.600Z,81.90
2017-12-26T21:37:31.553Z,81.90
2017-12-26T21:39:59.142Z,81.90
2017-12-26T21:42:27.088Z,81.90
2017-12-26T21:44:55.059Z,81.80
2017-12-26T21:47:22.619Z,81.60
2017-12-26T21:49:50.581Z,81.60
2017-12-26T21:52:18.551Z,81.50
2017-12-26T21:54:46.126Z,81.40
2017-12-26T21:57:14.441Z,81.30
2017-12-26T21:59:42.409Z,81.10
2017-12-26T22:02:11.092Z,81.70
2017-12-26T22:04:39.062Z,82.10
2017-12-26T22:07:07.014Z,82.80
2017-12-26T22:09:34.648Z,83.20
2017-12-26T22:12:02.301Z,83.30
2017-12-26T22:14:30.280Z,83.00
2017-12-26T22:16:57.834Z,82.80
2017-12-26T22:19:25.400Z,82.70
2017-12-26T22:21:52.963Z,82.60
2017-12-26T22:24:20.545Z,82.40
2017-12-26T22:26:48.490Z,82.10
2017-12-26T22:29:16.474Z,81.90
2017-12-26T22:31:44.432Z,82.00
2017-12-26T22:34:12.001Z,82.00
2017-12-26T22:36:39.990Z,81.90
2017-12-26T22:39:08.334Z,81.80
2017-12-26T22:44:05.056Z,81.70
2017-12-26T22:46:32.603Z,81.80
2017-12-26T22:49:00.178Z,81.50
2017-12-26T22:51:28.128Z,81.50
2017-12-26T22:53:55.705Z,81.70
2017-12-26T22:56:23.641Z,81.80
2017-12-26T22:58:51.198Z,81.70
2017-12-26T23:01:18.778Z,81.70
2017-12-26T23:03:46.733Z,81.90
2017-12-26T23:06:14.289Z,81.70
2017-12-26T23:08:41.848Z,81.50
2017-12-26T23:11:09.819Z,82.00
2017-12-26T23:13:38.169Z,82.10
2017-12-26T23:16:26.545Z,82.30
2017-12-26T23:18:54.099Z,82.00
2017-12-26T23:23:56.359Z,82.10
2017-12-26T23:26:30.316Z,82.10
2017-12-26T23:29:03.899Z,82.10
2017-12-26T23:31:37.039Z,82.10
2017-12-26T23:34:10.156Z,82.00
2017-12-26T23:36:43.713Z,82.00
2017-12-26T23:39:17.233Z,82.00
2017-12-26T23:41:50.788Z,81.90
2017-12-26T23:44:34.447Z,81.80
2017-12-26T23:47:08.681Z,81.80
2017-12-26T23:49:42.056Z,81.60
2017-12-26T23:52:15.155Z,81.90
2017-12-26T23:54:48.785Z,81.90
2017-12-26T23:57:22.666Z,82.10
